sensor_id;sensor_type;location;lat;lon;timestamp;pressure;altitude;pressure_sealevel;temperature;humidity
51530;BME280;37613;51.788;21.582;2023-04-08T00:02:30;100647.30;;;4.07;88.57
51530;BME280;37613;51.788;21.582;2023-04-08T00:06:32;100651.98;;;3.98;88.40
51530;BME280;37613;51.788;21.582;2023-04-08T00:10:34;100650.95;;;3.90;88.44
51530;BME280;37613;51.788;21.582;2023-04-08T00:14:35;100648.30;;;3.83;88.38
51530;BME280;37613;51.788;21.582;2023-04-08T00:18:38;100650.81;;;3.77;88.33
51530;BME280;37613;51.788;21.582;2023-04-08T00:22:42;100656.89;;;3.69;88.35
51530;BME280;37613;51.788;21.582;2023-04-08T00:26:44;100660.29;;;3.61;88.24
51530;BME280;37613;51.788;21.582;2023-04-08T00:30:47;100663.80;;;3.52;88.18
51530;BME280;37613;51.788;21.582;2023-04-08T00:34:51;100660.70;;;3.38;88.04
51530;BME280;37613;51.788;21.582;2023-04-08T00:38:53;100658.80;;;3.24;88.07
51530;BME280;37613;51.788;21.582;2023-04-08T00:42:56;100652.39;;;3.11;88.10
51530;BME280;37613;51.788;21.582;2023-04-08T00:46:58;100653.33;;;2.98;87.97
51530;BME280;37613;51.788;21.582;2023-04-08T00:51:06;100657.14;;;2.81;87.91
51530;BME280;37613;51.788;21.582;2023-04-08T00:55:08;100661.20;;;2.61;87.85
51530;BME280;37613;51.788;21.582;2023-04-08T00:59:10;100666.23;;;2.39;87.96
51530;BME280;37613;51.788;21.582;2023-04-08T01:03:19;100669.95;;;2.16;88.15
51530;BME280;37613;51.788;21.582;2023-04-08T01:07:54;100670.10;;;1.98;88.11
51530;BME280;37613;51.788;21.582;2023-04-08T01:11:57;100669.77;;;1.84;88.18
51530;BME280;37613;51.788;21.582;2023-04-08T01:16:03;100666.25;;;1.71;88.17
51530;BME280;37613;51.788;21.582;2023-04-08T01:20:06;100661.52;;;1.60;88.25
51530;BME280;37613;51.788;21.582;2023-04-08T01:24:40;100660.71;;;1.51;88.23
51530;BME280;37613;51.788;21.582;2023-04-08T01:28:48;100664.98;;;1.42;88.31
51530;BME280;37613;51.788;21.582;2023-04-08T01:32:54;100666.14;;;1.36;88.36
51530;BME280;37613;51.788;21.582;2023-04-08T01:37:06;100665.87;;;1.29;88.45
51530;BME280;37613;51.788;21.582;2023-04-08T01:41:10;100669.50;;;1.22;88.38
51530;BME280;37613;51.788;21.582;2023-04-08T01:45:15;100674.09;;;1.11;88.31
51530;BME280;37613;51.788;21.582;2023-04-08T01:49:23;100676.13;;;1.03;88.46
51530;BME280;37613;51.788;21.582;2023-04-08T01:53:26;100679.78;;;0.95;88.36
51530;BME280;37613;51.788;21.582;2023-04-08T01:57:31;100688.20;;;0.88;88.45
51530;BME280;37613;51.788;21.582;2023-04-08T02:01:34;100691.10;;;0.86;88.71
51530;BME280;37613;51.788;21.582;2023-04-08T02:05:36;100693.41;;;0.85;88.86
51530;BME280;37613;51.788;21.582;2023-04-08T02:09:37;100693.45;;;0.78;88.73
51530;BME280;37613;51.788;21.582;2023-04-08T02:13:38;100692.60;;;0.70;88.61
51530;BME280;37613;51.788;21.582;2023-04-08T02:17:54;100696.45;;;0.64;88.81
51530;BME280;37613;51.788;21.582;2023-04-08T02:22:08;100698.36;;;0.64;89.03
51530;BME280;37613;51.788;21.582;2023-04-08T02:26:15;100701.79;;;0.64;89.02
51530;BME280;37613;51.788;21.582;2023-04-08T02:30:27;100704.42;;;0.62;88.98
51530;BME280;37613;51.788;21.582;2023-04-08T02:34:38;100707.36;;;0.55;88.93
51530;BME280;37613;51.788;21.582;2023-04-08T02:38:40;100713.73;;;0.44;88.74
51530;BME280;37613;51.788;21.582;2023-04-08T02:42:41;100715.85;;;0.35;88.80
51530;BME280;37613;51.788;21.582;2023-04-08T02:46:42;100719.40;;;0.27;88.95
51530;BME280;37613;51.788;21.582;2023-04-08T02:50:44;100718.90;;;0.22;88.94
51530;BME280;37613;51.788;21.582;2023-04-08T02:54:49;100727.98;;;0.19;89.02
51530;BME280;37613;51.788;21.582;2023-04-08T02:58:50;100730.26;;;0.11;88.92
51530;BME280;37613;51.788;21.582;2023-04-08T03:02:52;100724.80;;;0.03;88.94
51530;BME280;37613;51.788;21.582;2023-04-08T03:06:56;100730.05;;;-0.02;89.10
51530;BME280;37613;51.788;21.582;2023-04-08T03:10:58;100726.80;;;-0.05;89.26
51530;BME280;37613;51.788;21.582;2023-04-08T03:15:01;100726.77;;;-0.06;89.46
51530;BME280;37613;51.788;21.582;2023-04-08T03:19:03;100729.08;;;-0.05;89.54
51530;BME280;37613;51.788;21.582;2023-04-08T03:23:04;100729.72;;;-0.04;89.58
51530;BME280;37613;51.788;21.582;2023-04-08T03:27:12;100729.08;;;-0.03;89.68
51530;BME280;37613;51.788;21.582;2023-04-08T03:31:14;100728.34;;;-0.02;89.70
51530;BME280;37613;51.788;21.582;2023-04-08T03:35:21;100730.11;;;-0.03;89.58
51530;BME280;37613;51.788;21.582;2023-04-08T03:39:31;100732.02;;;-0.05;89.64
51530;BME280;37613;51.788;21.582;2023-04-08T03:43:41;100737.40;;;-0.06;89.67
51530;BME280;37613;51.788;21.582;2023-04-08T03:47:46;100743.13;;;-0.07;89.78
51530;BME280;37613;51.788;21.582;2023-04-08T03:51:53;100743.75;;;-0.08;90.08
51530;BME280;37613;51.788;21.582;2023-04-08T03:55:55;100753.02;;;-0.09;90.03
51530;BME280;37613;51.788;21.582;2023-04-08T04:00:05;100757.49;;;-0.10;90.22
51530;BME280;37613;51.788;21.582;2023-04-08T04:04:10;100762.30;;;-0.08;90.30
51530;BME280;37613;51.788;21.582;2023-04-08T04:08:14;100762.08;;;-0.05;90.39
51530;BME280;37613;51.788;21.582;2023-04-08T04:12:19;100764.64;;;-0.04;90.50
51530;BME280;37613;51.788;21.582;2023-04-08T04:16:23;100770.59;;;0.00;90.62
51530;BME280;37613;51.788;21.582;2023-04-08T04:20:27;100773.45;;;0.11;90.93
51530;BME280;37613;51.788;21.582;2023-04-08T04:24:36;100778.35;;;0.60;92.17
51530;BME280;37613;51.788;21.582;2023-04-08T04:28:41;100781.73;;;1.50;93.60
51530;BME280;37613;51.788;21.582;2023-04-08T04:32:42;100786.64;;;2.47;94.21
51530;BME280;37613;51.788;21.582;2023-04-08T04:36:44;100790.21;;;3.58;95.31
51530;BME280;37613;51.788;21.582;2023-04-08T04:40:46;100794.02;;;4.71;95.36
51530;BME280;37613;51.788;21.582;2023-04-08T04:44:50;100797.79;;;5.68;95.00
51530;BME280;37613;51.788;21.582;2023-04-08T04:48:54;100800.20;;;6.65;95.02
51530;BME280;37613;51.788;21.582;2023-04-08T04:52:58;100806.98;;;7.64;94.53
51530;BME280;37613;51.788;21.582;2023-04-08T04:57:02;100817.02;;;8.36;91.15
51530;BME280;37613;51.788;21.582;2023-04-08T05:01:10;100817.45;;;8.82;89.50
51530;BME280;37613;51.788;21.582;2023-04-08T05:05:12;100816.46;;;9.36;89.74
51530;BME280;37613;51.788;21.582;2023-04-08T05:09:13;100818.05;;;10.02;90.36
51530;BME280;37613;51.788;21.582;2023-04-08T05:13:21;100826.77;;;10.63;87.77
51530;BME280;37613;51.788;21.582;2023-04-08T05:17:22;100828.19;;;11.30;88.34
51530;BME280;37613;51.788;21.582;2023-04-08T05:21:26;100832.83;;;11.63;83.90
51530;BME280;37613;51.788;21.582;2023-04-08T05:25:29;100838.02;;;12.02;85.37
51530;BME280;37613;51.788;21.582;2023-04-08T05:29:35;100838.48;;;12.45;83.25
51530;BME280;37613;51.788;21.582;2023-04-08T05:33:36;100834.98;;;12.89;77.30
51530;BME280;37613;51.788;21.582;2023-04-08T05:37:40;100833.48;;;13.18;78.20
51530;BME280;37613;51.788;21.582;2023-04-08T05:41:42;100834.19;;;13.14;74.51
51530;BME280;37613;51.788;21.582;2023-04-08T05:45:46;100839.17;;;13.11;72.16
51530;BME280;37613;51.788;21.582;2023-04-08T05:49:51;100843.16;;;13.31;74.18
51530;BME280;37613;51.788;21.582;2023-04-08T05:54:07;100841.10;;;13.91;74.84
51530;BME280;37613;51.788;21.582;2023-04-08T05:58:12;100840.66;;;14.39;73.90
51530;BME280;37613;51.788;21.582;2023-04-08T06:02:22;100843.52;;;14.56;70.14
51530;BME280;37613;51.788;21.582;2023-04-08T06:06:26;100846.53;;;14.41;69.23
51530;BME280;37613;51.788;21.582;2023-04-08T06:10:27;100845.18;;;13.76;68.36
51530;BME280;37613;51.788;21.582;2023-04-08T06:14:28;100843.40;;;12.30;68.06
51530;BME280;37613;51.788;21.582;2023-04-08T06:18:30;100843.48;;;11.14;67.28
51530;BME280;37613;51.788;21.582;2023-04-08T06:22:35;100856.13;;;9.81;66.20
51530;BME280;37613;51.788;21.582;2023-04-08T06:26:36;100858.09;;;8.64;67.67
51530;BME280;37613;51.788;21.582;2023-04-08T06:30:38;100854.89;;;7.92;69.26
51530;BME280;37613;51.788;21.582;2023-04-08T06:34:44;100854.27;;;7.46;70.30
51530;BME280;37613;51.788;21.582;2023-04-08T06:38:54;100857.17;;;7.35;71.09
51530;BME280;37613;51.788;21.582;2023-04-08T06:42:58;100859.26;;;7.37;71.74
51530;BME280;37613;51.788;21.582;2023-04-08T06:47:00;100860.91;;;7.40;72.28
51530;BME280;37613;51.788;21.582;2023-04-08T06:51:02;100864.02;;;7.56;72.74
51530;BME280;37613;51.788;21.582;2023-04-08T06:55:12;100865.67;;;7.78;72.95
51530;BME280;37613;51.788;21.582;2023-04-08T06:59:17;100875.03;;;8.07;73.15
51530;BME280;37613;51.788;21.582;2023-04-08T07:03:18;100884.72;;;8.37;72.85
51530;BME280;37613;51.788;21.582;2023-04-08T07:07:19;100890.32;;;8.45;72.50
51530;BME280;37613;51.788;21.582;2023-04-08T07:11:29;100892.70;;;8.50;72.64
51530;BME280;37613;51.788;21.582;2023-04-08T07:15:31;100892.33;;;8.73;73.05
51530;BME280;37613;51.788;21.582;2023-04-08T07:19:34;100887.12;;;8.90;72.89
51530;BME280;37613;51.788;21.582;2023-04-08T07:23:36;100889.27;;;9.10;72.90
51530;BME280;37613;51.788;21.582;2023-04-08T07:27:59;100889.02;;;9.29;72.48
51530;BME280;37613;51.788;21.582;2023-04-08T07:53:41;100895.88;;;9.59;71.30
51530;BME280;37613;51.788;21.582;2023-04-08T09:51:18;100894.90;;;11.28;67.53
51530;BME280;37613;51.788;21.582;2023-04-08T10:04:31;100899.09;;;11.50;64.96
51530;BME280;37613;51.788;21.582;2023-04-08T10:08:57;100889.72;;;11.57;65.48
51530;BME280;37613;51.788;21.582;2023-04-08T10:13:30;100889.94;;;11.79;64.27
51530;BME280;37613;51.788;21.582;2023-04-08T10:18:40;100886.27;;;11.99;64.92
51530;BME280;37613;51.788;21.582;2023-04-08T10:29:36;100881.33;;;12.09;63.40
51530;BME280;37613;51.788;21.582;2023-04-08T10:58:08;100868.43;;;12.72;62.50
51530;BME280;37613;51.788;21.582;2023-04-08T11:06:50;100867.09;;;12.78;60.94
51530;BME280;37613;51.788;21.582;2023-04-08T11:27:05;100846.27;;;13.16;59.27
51530;BME280;37613;51.788;21.582;2023-04-08T11:32:09;100840.22;;;13.19;57.88
51530;BME280;37613;51.788;21.582;2023-04-08T12:26:33;100812.76;;;13.19;55.76
51530;BME280;37613;51.788;21.582;2023-04-08T12:31:29;100807.27;;;13.30;55.83
51530;BME280;37613;51.788;21.582;2023-04-08T13:05:49;100776.02;;;13.56;55.69
51530;BME280;37613;51.788;21.582;2023-04-08T13:23:16;100771.95;;;13.60;52.55
51530;BME280;37613;51.788;21.582;2023-04-08T13:28:02;100773.20;;;13.42;53.27
51530;BME280;37613;51.788;21.582;2023-04-08T13:32:13;100775.61;;;13.30;53.18
51530;BME280;37613;51.788;21.582;2023-04-08T13:53:50;100754.38;;;13.45;52.49
51530;BME280;37613;51.788;21.582;2023-04-08T14:03:20;100759.23;;;13.40;52.56
51530;BME280;37613;51.788;21.582;2023-04-08T14:29:44;100738.36;;;13.33;52.49
51530;BME280;37613;51.788;21.582;2023-04-08T14:58:29;100752.02;;;12.71;52.63
51530;BME280;37613;51.788;21.582;2023-04-08T15:02:36;100749.23;;;12.55;52.47
51530;BME280;37613;51.788;21.582;2023-04-08T15:06:41;100754.69;;;12.46;52.55
51530;BME280;37613;51.788;21.582;2023-04-08T15:10:46;100755.23;;;12.41;52.96
51530;BME280;37613;51.788;21.582;2023-04-08T15:14:57;100754.13;;;12.35;53.18
51530;BME280;37613;51.788;21.582;2023-04-08T15:19:07;100758.72;;;12.31;53.46
51530;BME280;37613;51.788;21.582;2023-04-08T15:23:14;100759.35;;;12.27;53.55
51530;BME280;37613;51.788;21.582;2023-04-08T15:27:22;100761.32;;;12.21;53.85
51530;BME280;37613;51.788;21.582;2023-04-08T15:31:38;100760.81;;;12.08;53.72
51530;BME280;37613;51.788;21.582;2023-04-08T15:35:53;100763.39;;;11.95;53.99
51530;BME280;37613;51.788;21.582;2023-04-08T15:40:06;100767.79;;;11.85;54.43
51530;BME280;37613;51.788;21.582;2023-04-08T15:44:15;100767.02;;;11.76;55.12
51530;BME280;37613;51.788;21.582;2023-04-08T15:48:28;100770.46;;;11.68;55.91
51530;BME280;37613;51.788;21.582;2023-04-08T15:52:36;100772.64;;;11.61;55.96
51530;BME280;37613;51.788;21.582;2023-04-08T15:56:42;100773.41;;;11.53;56.41
51530;BME280;37613;51.788;21.582;2023-04-08T16:00:47;100763.59;;;11.39;56.55
51530;BME280;37613;51.788;21.582;2023-04-08T16:04:49;100775.30;;;11.38;56.86
51530;BME280;37613;51.788;21.582;2023-04-08T16:08:54;100780.80;;;11.31;57.38
51530;BME280;37613;51.788;21.582;2023-04-08T16:12:59;100779.27;;;11.25;57.65
51530;BME280;37613;51.788;21.582;2023-04-08T16:17:01;100776.55;;;11.21;57.78
51530;BME280;37613;51.788;21.582;2023-04-08T16:21:07;100785.38;;;11.16;58.22
51530;BME280;37613;51.788;21.582;2023-04-08T16:25:11;100788.42;;;11.10;58.35
51530;BME280;37613;51.788;21.582;2023-04-08T16:29:16;100784.05;;;11.06;58.83
51530;BME280;37613;51.788;21.582;2023-04-08T16:33:18;100781.72;;;11.01;59.15
51530;BME280;37613;51.788;21.582;2023-04-08T16:37:27;100783.34;;;10.97;59.14
51530;BME280;37613;51.788;21.582;2023-04-08T16:41:31;100787.35;;;10.92;59.17
51530;BME280;37613;51.788;21.582;2023-04-08T16:45:34;100789.05;;;10.87;59.56
51530;BME280;37613;51.788;21.582;2023-04-08T16:49:37;100787.95;;;10.81;59.84
51530;BME280;37613;51.788;21.582;2023-04-08T16:53:39;100791.16;;;10.75;60.00
51530;BME280;37613;51.788;21.582;2023-04-08T16:57:41;100793.95;;;10.69;60.20
51530;BME280;37613;51.788;21.582;2023-04-08T17:01:43;100788.80;;;10.58;60.31
51530;BME280;37613;51.788;21.582;2023-04-08T17:05:48;100798.83;;;10.57;60.38
51530;BME280;37613;51.788;21.582;2023-04-08T17:09:50;100803.52;;;10.51;60.70
51530;BME280;37613;51.788;21.582;2023-04-08T17:13:55;100798.55;;;10.45;60.88
51530;BME280;37613;51.788;21.582;2023-04-08T17:17:58;100803.55;;;10.40;60.72
51530;BME280;37613;51.788;21.582;2023-04-08T17:22:00;100805.81;;;10.35;60.81
51530;BME280;37613;51.788;21.582;2023-04-08T17:26:07;100809.08;;;10.29;61.12
51530;BME280;37613;51.788;21.582;2023-04-08T17:30:10;100805.83;;;10.23;61.23
51530;BME280;37613;51.788;21.582;2023-04-08T17:34:12;100808.83;;;10.18;61.66
51530;BME280;37613;51.788;21.582;2023-04-08T17:38:14;100813.50;;;10.12;61.52
51530;BME280;37613;51.788;21.582;2023-04-08T17:42:34;100815.10;;;10.06;61.95
51530;BME280;37613;51.788;21.582;2023-04-08T17:46:36;100814.72;;;10.00;61.99
51530;BME280;37613;51.788;21.582;2023-04-08T17:50:39;100817.81;;;9.95;62.04
51530;BME280;37613;51.788;21.582;2023-04-08T17:54:41;100817.66;;;9.89;62.47
51530;BME280;37613;51.788;21.582;2023-04-08T17:58:43;100820.59;;;9.84;62.64
51530;BME280;37613;51.788;21.582;2023-04-08T18:02:51;100825.33;;;9.77;62.98
51530;BME280;37613;51.788;21.582;2023-04-08T18:06:53;100827.86;;;9.72;64.07
51530;BME280;37613;51.788;21.582;2023-04-08T18:10:56;100832.45;;;9.67;64.54
51530;BME280;37613;51.788;21.582;2023-04-08T18:14:58;100839.48;;;9.61;66.54
51530;BME280;37613;51.788;21.582;2023-04-08T18:19:00;100846.43;;;9.57;66.61
51530;BME280;37613;51.788;21.582;2023-04-08T18:23:03;100851.73;;;9.52;67.02
51530;BME280;37613;51.788;21.582;2023-04-08T18:27:05;100857.73;;;9.47;67.13
51530;BME280;37613;51.788;21.582;2023-04-08T18:31:08;100865.21;;;9.41;67.34
51530;BME280;37613;51.788;21.582;2023-04-08T18:35:10;100866.73;;;9.36;67.50
51530;BME280;37613;51.788;21.582;2023-04-08T18:39:11;100872.33;;;9.31;67.58
51530;BME280;37613;51.788;21.582;2023-04-08T18:43:13;100872.48;;;9.26;67.93
51530;BME280;37613;51.788;21.582;2023-04-08T18:47:16;100872.16;;;9.20;68.63
51530;BME280;37613;51.788;21.582;2023-04-08T18:51:18;100871.53;;;9.15;67.66
51530;BME280;37613;51.788;21.582;2023-04-08T18:55:20;100871.03;;;9.13;67.74
51530;BME280;37613;51.788;21.582;2023-04-08T18:59:22;100871.28;;;9.10;69.20
51530;BME280;37613;51.788;21.582;2023-04-08T19:03:24;100875.79;;;9.06;70.14
51530;BME280;37613;51.788;21.582;2023-04-08T19:07:27;100874.06;;;9.01;70.09
51530;BME280;37613;51.788;21.582;2023-04-08T19:11:29;100867.75;;;8.96;70.75
51530;BME280;37613;51.788;21.582;2023-04-08T19:15:31;100871.13;;;8.91;71.99
51530;BME280;37613;51.788;21.582;2023-04-08T19:19:33;100870.74;;;8.87;71.38
51530;BME280;37613;51.788;21.582;2023-04-08T19:23:35;100865.33;;;8.83;71.56
51530;BME280;37613;51.788;21.582;2023-04-08T19:27:37;100866.06;;;8.80;71.28
51530;BME280;37613;51.788;21.582;2023-04-08T19:31:39;100864.13;;;8.78;72.44
51530;BME280;37613;51.788;21.582;2023-04-08T19:35:41;100859.88;;;8.74;72.65
51530;BME280;37613;51.788;21.582;2023-04-08T19:39:43;100860.77;;;8.71;73.00
51530;BME280;37613;51.788;21.582;2023-04-08T19:43:45;100859.05;;;8.67;72.52
51530;BME280;37613;51.788;21.582;2023-04-08T19:47:48;100857.27;;;8.64;72.86
51530;BME280;37613;51.788;21.582;2023-04-08T19:51:50;100855.69;;;8.60;72.70
51530;BME280;37613;51.788;21.582;2023-04-08T19:56:01;100853.27;;;8.57;72.93
51530;BME280;37613;51.788;21.582;2023-04-08T20:00:04;100853.20;;;8.54;73.19
51530;BME280;37613;51.788;21.582;2023-04-08T20:04:06;100853.61;;;8.49;73.28
51530;BME280;37613;51.788;21.582;2023-04-08T20:08:08;100851.89;;;8.46;73.38
51530;BME280;37613;51.788;21.582;2023-04-08T20:12:10;100850.50;;;8.43;73.42
51530;BME280;37613;51.788;21.582;2023-04-08T20:16:12;100853.99;;;8.41;73.46
51530;BME280;37613;51.788;21.582;2023-04-08T20:20:14;100853.39;;;8.39;73.40
51530;BME280;37613;51.788;21.582;2023-04-08T20:24:17;100849.24;;;8.35;73.47
51530;BME280;37613;51.788;21.582;2023-04-08T20:28:19;100852.50;;;8.30;74.42
51530;BME280;37613;51.788;21.582;2023-04-08T20:32:21;100856.98;;;8.26;73.88
51530;BME280;37613;51.788;21.582;2023-04-08T20:36:25;100856.45;;;8.23;74.26
51530;BME280;37613;51.788;21.582;2023-04-08T20:40:28;100853.16;;;8.20;74.25
51530;BME280;37613;51.788;21.582;2023-04-08T20:44:31;100856.44;;;8.18;74.29
51530;BME280;37613;51.788;21.582;2023-04-08T20:48:33;100851.33;;;8.15;74.35
51530;BME280;37613;51.788;21.582;2023-04-08T20:52:35;100854.06;;;8.14;74.44
51530;BME280;37613;51.788;21.582;2023-04-08T20:56:37;100850.34;;;8.09;74.83
51530;BME280;37613;51.788;21.582;2023-04-08T21:00:39;100854.13;;;8.05;74.81
51530;BME280;37613;51.788;21.582;2023-04-08T21:04:41;100857.02;;;8.03;75.08
51530;BME280;37613;51.788;21.582;2023-04-08T21:08:44;100857.08;;;8.02;75.26
51530;BME280;37613;51.788;21.582;2023-04-08T21:12:46;100855.75;;;8.00;75.46
51530;BME280;37613;51.788;21.582;2023-04-08T21:16:48;100852.96;;;7.98;75.67
51530;BME280;37613;51.788;21.582;2023-04-08T21:20:50;100850.64;;;7.95;75.70
51530;BME280;37613;51.788;21.582;2023-04-08T21:24:52;100845.77;;;7.93;75.85
51530;BME280;37613;51.788;21.582;2023-04-08T21:28:54;100848.55;;;7.91;76.16
51530;BME280;37613;51.788;21.582;2023-04-08T21:32:56;100847.83;;;7.90;76.27
51530;BME280;37613;51.788;21.582;2023-04-08T21:36:58;100844.92;;;7.90;76.35
51530;BME280;37613;51.788;21.582;2023-04-08T21:41:00;100845.39;;;7.90;76.58
51530;BME280;37613;51.788;21.582;2023-04-08T21:45:02;100847.96;;;7.88;76.62
51530;BME280;37613;51.788;21.582;2023-04-08T21:49:07;100843.10;;;7.86;76.80
51530;BME280;37613;51.788;21.582;2023-04-08T21:53:12;100840.57;;;7.81;77.22
51530;BME280;37613;51.788;21.582;2023-04-08T21:57:14;100842.94;;;7.78;77.33
51530;BME280;37613;51.788;21.582;2023-04-08T22:01:15;100842.09;;;7.76;77.53
51530;BME280;37613;51.788;21.582;2023-04-08T22:05:18;100837.97;;;7.73;77.80
51530;BME280;37613;51.788;21.582;2023-04-08T22:09:20;100836.87;;;7.71;78.01
51530;BME280;37613;51.788;21.582;2023-04-08T22:13:22;100834.57;;;7.70;78.19
51530;BME280;37613;51.788;21.582;2023-04-08T22:17:24;100834.71;;;7.69;78.37
51530;BME280;37613;51.788;21.582;2023-04-08T22:21:29;100828.72;;;7.68;78.52
51530;BME280;37613;51.788;21.582;2023-04-08T22:25:32;100826.56;;;7.66;78.73
51530;BME280;37613;51.788;21.582;2023-04-08T22:29:34;100825.36;;;7.62;78.76
51530;BME280;37613;51.788;21.582;2023-04-08T22:33:37;100830.45;;;7.57;78.87
51530;BME280;37613;51.788;21.582;2023-04-08T22:37:39;100833.65;;;7.52;79.11
51530;BME280;37613;51.788;21.582;2023-04-08T22:41:42;100832.98;;;7.50;79.34
51530;BME280;37613;51.788;21.582;2023-04-08T22:45:44;100834.16;;;7.50;79.38
51530;BME280;37613;51.788;21.582;2023-04-08T22:49:46;100835.23;;;7.48;79.63
51530;BME280;37613;51.788;21.582;2023-04-08T22:53:48;100833.11;;;7.46;79.67
51530;BME280;37613;51.788;21.582;2023-04-08T22:57:53;100827.73;;;7.40;79.71
51530;BME280;37613;51.788;21.582;2023-04-08T23:01:55;100826.05;;;7.36;79.53
51530;BME280;37613;51.788;21.582;2023-04-08T23:05:57;100827.41;;;7.31;79.94
51530;BME280;37613;51.788;21.582;2023-04-08T23:09:59;100826.55;;;7.27;80.27
51530;BME280;37613;51.788;21.582;2023-04-08T23:14:01;100824.33;;;7.26;80.43
51530;BME280;37613;51.788;21.582;2023-04-08T23:18:06;100817.92;;;7.21;80.51
51530;BME280;37613;51.788;21.582;2023-04-08T23:22:08;100826.99;;;7.25;80.76
51530;BME280;37613;51.788;21.582;2023-04-08T23:26:17;100822.80;;;7.24;80.95
51530;BME280;37613;51.788;21.582;2023-04-08T23:30:19;100821.13;;;7.23;80.94
51530;BME280;37613;51.788;21.582;2023-04-08T23:34:21;100816.02;;;7.20;80.89
51530;BME280;37613;51.788;21.582;2023-04-08T23:38:23;100804.52;;;7.10;81.09
51530;BME280;37613;51.788;21.582;2023-04-08T23:42:25;100811.96;;;7.11;81.12
51530;BME280;37613;51.788;21.582;2023-04-08T23:46:27;100813.80;;;7.06;81.44
51530;BME280;37613;51.788;21.582;2023-04-08T23:50:29;100813.24;;;7.03;81.55
51530;BME280;37613;51.788;21.582;2023-04-08T23:54:31;100814.04;;;7.00;81.83
51530;BME280;37613;51.788;21.582;2023-04-08T23:58:35;100811.70;;;6.97;81.85
